Snoqualmie Pass, Washington
Current Conditions -  °F | °C
As of 11:53 PM on Sunday 23 Nov 2014 (Local Time) from KRNT Reporting Station
Clear Clear  
Wind Chill: 43°   Ceiling: Unl
Heat Index: 43°   Visibility: 10mi
Dew Point: 41°   Wind: 3mph
Humidity: 93%   Direction: 170°S
Pressure: 30.36"   Gusts: NA
Location:  47.43°N, 121.4°W
Report Text: KRNT 240753Z AUTO 17003KT 10SM CLR 06/05 A3036 RMK AO2 SLP287 T00610050 401280061
Loading
Personal Weather Stations






























Interactive Weather Map New forecast layout! Learn more

10-Day Weather Forecast

Advertisements
Track Severe Weather on mobile